sensor_id;sensor_type;location;lat;lon;timestamp;pressure;altitude;pressure_sealevel;temperature;humidity
33404;BME280;19751;40.274;18.268;2023-08-06T00:00:38;100088.88;;;21.80;100.00
33404;BME280;19751;40.274;18.268;2023-08-06T00:03:03;100079.59;;;21.71;100.00
33404;BME280;19751;40.274;18.268;2023-08-06T00:05:29;100089.75;;;21.71;100.00
33404;BME280;19751;40.274;18.268;2023-08-06T00:07:54;100084.50;;;21.79;100.00
33404;BME280;19751;40.274;18.268;2023-08-06T00:10:20;100080.13;;;21.83;100.00
33404;BME280;19751;40.274;18.268;2023-08-06T00:12:46;100082.03;;;21.83;100.00
33404;BME280;19751;40.274;18.268;2023-08-06T00:15:12;100091.88;;;21.89;100.00
33404;BME280;19751;40.274;18.268;2023-08-06T00:17:38;100092.41;;;21.96;100.00
33404;BME280;19751;40.274;18.268;2023-08-06T00:20:04;100084.72;;;21.98;100.00
33404;BME280;19751;40.274;18.268;2023-08-06T00:22:36;100088.06;;;21.90;100.00
33404;BME280;19751;40.274;18.268;2023-08-06T00:25:03;100081.50;;;21.86;100.00
33404;BME280;19751;40.274;18.268;2023-08-06T00:27:29;100075.75;;;21.82;100.00
33404;BME280;19751;40.274;18.268;2023-08-06T00:29:54;100071.63;;;21.80;100.00
33404;BME280;19751;40.274;18.268;2023-08-06T00:32:20;100071.66;;;21.65;100.00
33404;BME280;19751;40.274;18.268;2023-08-06T00:34:46;100074.72;;;21.58;100.00
33404;BME280;19751;40.274;18.268;2023-08-06T00:37:15;100065.13;;;21.55;100.00
33404;BME280;19751;40.274;18.268;2023-08-06T00:39:40;100076.94;;;21.51;100.00
33404;BME280;19751;40.274;18.268;2023-08-06T00:42:05;100067.34;;;21.43;100.00
33404;BME280;19751;40.274;18.268;2023-08-06T00:44:31;100073.97;;;21.37;100.00
33404;BME280;19751;40.274;18.268;2023-08-06T00:46:57;100084.34;;;21.30;100.00
33404;BME280;19751;40.274;18.268;2023-08-06T00:49:22;100084.63;;;21.33;100.00
33404;BME280;19751;40.274;18.268;2023-08-06T00:51:48;100084.91;;;21.42;100.00
33404;BME280;19751;40.274;18.268;2023-08-06T00:54:14;100087.91;;;21.46;100.00
33404;BME280;19751;40.274;18.268;2023-08-06T00:56:42;100085.44;;;21.49;100.00
33404;BME280;19751;40.274;18.268;2023-08-06T00:59:08;100084.06;;;21.42;100.00
33404;BME280;19751;40.274;18.268;2023-08-06T01:01:35;100080.78;;;21.40;100.00
33404;BME280;19751;40.274;18.268;2023-08-06T01:04:01;100080.53;;;21.36;100.00
33404;BME280;19751;40.274;18.268;2023-08-06T01:06:45;100079.69;;;21.35;100.00
33404;BME280;19751;40.274;18.268;2023-08-06T01:09:40;100081.06;;;21.28;100.00
33404;BME280;19751;40.274;18.268;2023-08-06T01:15:16;100081.34;;;21.21;100.00
33404;BME280;19751;40.274;18.268;2023-08-06T01:17:45;100084.91;;;21.17;100.00
33404;BME280;19751;40.274;18.268;2023-08-06T01:20:11;100087.94;;;21.15;100.00
33404;BME280;19751;40.274;18.268;2023-08-06T01:22:36;100078.88;;;21.15;100.00
33404;BME280;19751;40.274;18.268;2023-08-06T01:25:02;100075.34;;;21.19;100.00
33404;BME280;19751;40.274;18.268;2023-08-06T01:27:38;100086.84;;;21.16;100.00
33404;BME280;19751;40.274;18.268;2023-08-06T01:30:30;100095.31;;;21.09;100.00
33404;BME280;19751;40.274;18.268;2023-08-06T01:33:03;100091.75;;;21.09;100.00
33404;BME280;19751;40.274;18.268;2023-08-06T01:35:30;100101.59;;;21.10;100.00
33404;BME280;19751;40.274;18.268;2023-08-06T01:37:55;100104.38;;;21.15;100.00
33404;BME280;19751;40.274;18.268;2023-08-06T01:40:21;100106.53;;;21.28;100.00
33404;BME280;19751;40.274;18.268;2023-08-06T01:42:47;100109.84;;;21.41;100.00
33404;BME280;19751;40.274;18.268;2023-08-06T01:45:13;100111.47;;;21.47;100.00
33404;BME280;19751;40.274;18.268;2023-08-06T01:47:38;100116.38;;;21.55;100.00
33404;BME280;19751;40.274;18.268;2023-08-06T01:50:04;100115.31;;;21.46;100.00
33404;BME280;19751;40.274;18.268;2023-08-06T01:52:30;100122.72;;;21.45;100.00
33404;BME280;19751;40.274;18.268;2023-08-06T01:54:55;100122.69;;;21.35;100.00
33404;BME280;19751;40.274;18.268;2023-08-06T01:57:21;100129.81;;;21.26;100.00
33404;BME280;19751;40.274;18.268;2023-08-06T01:59:46;100128.16;;;21.30;100.00
33404;BME280;19751;40.274;18.268;2023-08-06T02:02:12;100127.38;;;21.34;100.00
33404;BME280;19751;40.274;18.268;2023-08-06T02:04:38;100132.84;;;21.24;100.00
33404;BME280;19751;40.274;18.268;2023-08-06T02:07:03;100137.22;;;21.15;100.00
33404;BME280;19751;40.274;18.268;2023-08-06T02:09:29;100128.44;;;21.13;100.00
33404;BME280;19751;40.274;18.268;2023-08-06T02:11:54;100131.72;;;21.05;100.00
33404;BME280;19751;40.274;18.268;2023-08-06T02:14:20;100130.38;;;21.07;100.00
33404;BME280;19751;40.274;18.268;2023-08-06T02:16:45;100131.19;;;21.08;100.00
33404;BME280;19751;40.274;18.268;2023-08-06T02:19:11;100126.81;;;21.12;100.00
33404;BME280;19751;40.274;18.268;2023-08-06T02:21:36;100129.28;;;21.24;100.00
33404;BME280;19751;40.274;18.268;2023-08-06T02:24:02;100129.00;;;21.35;100.00
33404;BME280;19751;40.274;18.268;2023-08-06T02:26:28;100133.38;;;21.42;100.00
33404;BME280;19751;40.274;18.268;2023-08-06T02:28:53;100132.28;;;21.43;100.00
33404;BME280;19751;40.274;18.268;2023-08-06T02:31:19;100125.19;;;21.37;100.00
33404;BME280;19751;40.274;18.268;2023-08-06T02:33:44;100127.06;;;21.31;100.00
33404;BME280;19751;40.274;18.268;2023-08-06T02:36:10;100129.00;;;21.20;100.00
33404;BME280;19751;40.274;18.268;2023-08-06T02:38:35;100124.31;;;21.10;100.00
33404;BME280;19751;40.274;18.268;2023-08-06T02:41:04;100124.91;;;21.13;100.00
33404;BME280;19751;40.274;18.268;2023-08-06T02:43:30;100128.47;;;21.08;100.00
33404;BME280;19751;40.274;18.268;2023-08-06T02:45:59;100133.13;;;21.07;100.00
33404;BME280;19751;40.274;18.268;2023-08-06T02:48:25;100129.53;;;20.97;100.00
33404;BME280;19751;40.274;18.268;2023-08-06T02:50:51;100120.22;;;20.93;100.00
33404;BME280;19751;40.274;18.268;2023-08-06T02:53:16;100128.44;;;20.93;100.00
33404;BME280;19751;40.274;18.268;2023-08-06T02:55:46;100127.34;;;20.94;100.00
33404;BME280;19751;40.274;18.268;2023-08-06T02:58:15;100119.13;;;20.94;100.00
33404;BME280;19751;40.274;18.268;2023-08-06T03:00:43;100133.34;;;20.85;100.00
33404;BME280;19751;40.274;18.268;2023-08-06T03:03:09;100135.56;;;20.83;100.00
33404;BME280;19751;40.274;18.268;2023-08-06T03:05:35;100127.88;;;20.75;100.00
33404;BME280;19751;40.274;18.268;2023-08-06T03:08:00;100127.88;;;20.70;100.00
33404;BME280;19751;40.274;18.268;2023-08-06T03:10:26;100122.13;;;20.72;100.00
33404;BME280;19751;40.274;18.268;2023-08-06T03:12:51;100128.16;;;20.79;100.00
33404;BME280;19751;40.274;18.268;2023-08-06T03:15:17;100126.53;;;20.83;100.00
33404;BME280;19751;40.274;18.268;2023-08-06T03:17:42;100144.88;;;20.82;100.00
33404;BME280;19751;40.274;18.268;2023-08-06T03:20:09;100135.00;;;20.76;100.00
33404;BME280;19751;40.274;18.268;2023-08-06T03:22:35;100136.09;;;20.80;100.00
33404;BME280;19751;40.274;18.268;2023-08-06T03:25:00;100140.22;;;20.83;100.00
33404;BME280;19751;40.274;18.268;2023-08-06T03:27:26;100139.66;;;20.81;100.00
33404;BME280;19751;40.274;18.268;2023-08-06T03:29:51;100135.81;;;20.67;100.00
33404;BME280;19751;40.274;18.268;2023-08-06T03:32:17;100142.63;;;20.64;100.00
33404;BME280;19751;40.274;18.268;2023-08-06T03:34:42;100145.34;;;20.59;100.00
33404;BME280;19751;40.274;18.268;2023-08-06T03:37:08;100140.41;;;20.56;100.00
33404;BME280;19751;40.274;18.268;2023-08-06T03:39:33;100139.88;;;20.59;100.00
33404;BME280;19751;40.274;18.268;2023-08-06T03:41:59;100148.38;;;20.57;100.00
33404;BME280;19751;40.274;18.268;2023-08-06T03:44:24;100151.66;;;20.59;100.00
33404;BME280;19751;40.274;18.268;2023-08-06T03:46:52;100148.63;;;20.61;100.00
33404;BME280;19751;40.274;18.268;2023-08-06T03:49:17;100158.75;;;20.50;100.00
33404;BME280;19751;40.274;18.268;2023-08-06T03:51:43;100152.97;;;20.47;100.00
33404;BME280;19751;40.274;18.268;2023-08-06T03:54:08;100149.41;;;20.46;100.00
33404;BME280;19751;40.274;18.268;2023-08-06T03:56:34;100147.72;;;20.40;100.00
33404;BME280;19751;40.274;18.268;2023-08-06T03:58:59;100144.72;;;20.36;100.00
33404;BME280;19751;40.274;18.268;2023-08-06T04:01:25;100143.88;;;20.36;100.00
33404;BME280;19751;40.274;18.268;2023-08-06T04:03:50;100145.81;;;20.35;100.00
33404;BME280;19751;40.274;18.268;2023-08-06T04:06:16;100144.19;;;20.40;100.00
33404;BME280;19751;40.274;18.268;2023-08-06T04:08:41;100144.97;;;20.35;100.00
33404;BME280;19751;40.274;18.268;2023-08-06T04:11:07;100155.91;;;20.30;100.00
33404;BME280;19751;40.274;18.268;2023-08-06T04:13:32;100149.63;;;20.24;100.00
33404;BME280;19751;40.274;18.268;2023-08-06T04:16:04;100170.94;;;20.27;100.00
33404;BME280;19751;40.274;18.268;2023-08-06T04:18:30;100154.81;;;20.31;100.00
33404;BME280;19751;40.274;18.268;2023-08-06T04:20:56;100153.47;;;20.39;100.00
33404;BME280;19751;40.274;18.268;2023-08-06T04:23:23;100161.69;;;20.39;100.00
33404;BME280;19751;40.274;18.268;2023-08-06T04:25:48;100158.72;;;20.45;100.00
33404;BME280;19751;40.274;18.268;2023-08-06T04:28:14;100161.97;;;20.47;100.00
33404;BME280;19751;40.274;18.268;2023-08-06T04:30:39;100171.00;;;20.48;100.00
33404;BME280;19751;40.274;18.268;2023-08-06T04:33:05;100177.09;;;20.50;100.00
33404;BME280;19751;40.274;18.268;2023-08-06T04:35:30;100167.78;;;20.51;100.00
33404;BME280;19751;40.274;18.268;2023-08-06T04:37:56;100172.72;;;20.49;100.00
33404;BME280;19751;40.274;18.268;2023-08-06T04:40:21;100177.31;;;20.48;100.00
33404;BME280;19751;40.274;18.268;2023-08-06T04:42:47;100178.41;;;20.47;100.00
33404;BME280;19751;40.274;18.268;2023-08-06T04:45:12;100179.53;;;20.51;100.00
33404;BME280;19751;40.274;18.268;2023-08-06T04:47:38;100184.19;;;20.61;100.00
33404;BME280;19751;40.274;18.268;2023-08-06T04:50:04;100180.41;;;20.67;100.00
33404;BME280;19751;40.274;18.268;2023-08-06T04:52:29;100176.03;;;20.71;100.00
33404;BME280;19751;40.274;18.268;2023-08-06T04:54:57;100190.53;;;20.72;100.00
33404;BME280;19751;40.274;18.268;2023-08-06T04:57:23;100179.31;;;20.73;100.00
33404;BME280;19751;40.274;18.268;2023-08-06T04:59:49;100182.34;;;20.72;100.00
33404;BME280;19751;40.274;18.268;2023-08-06T05:02:14;100190.53;;;20.77;100.00
33404;BME280;19751;40.274;18.268;2023-08-06T05:04:40;100187.28;;;20.75;100.00
33404;BME280;19751;40.274;18.268;2023-08-06T05:07:05;100186.44;;;20.74;100.00
33404;BME280;19751;40.274;18.268;2023-08-06T05:09:31;100198.50;;;20.78;100.00
33404;BME280;19751;40.274;18.268;2023-08-06T05:11:57;100197.94;;;20.81;100.00
33404;BME280;19751;40.274;18.268;2023-08-06T05:14:22;100199.03;;;20.85;100.00
33404;BME280;19751;40.274;18.268;2023-08-06T05:16:48;100200.44;;;20.83;100.00
33404;BME280;19751;40.274;18.268;2023-08-06T05:19:13;100195.25;;;20.87;100.00
33404;BME280;19751;40.274;18.268;2023-08-06T05:21:39;100198.50;;;20.89;100.00
33404;BME280;19751;40.274;18.268;2023-08-06T05:24:05;100213.84;;;20.84;100.00
33404;BME280;19751;40.274;18.268;2023-08-06T05:26:30;100211.38;;;20.88;100.00
33404;BME280;19751;40.274;18.268;2023-08-06T05:28:56;100213.31;;;20.98;100.00
33404;BME280;19751;40.274;18.268;2023-08-06T05:31:21;100211.66;;;20.97;100.00
33404;BME280;19751;40.274;18.268;2023-08-06T05:33:47;100209.50;;;20.99;100.00
33404;BME280;19751;40.274;18.268;2023-08-06T05:36:12;100232.47;;;20.98;100.00
33404;BME280;19751;40.274;18.268;2023-08-06T05:38:38;100227.56;;;21.00;100.00
33404;BME280;19751;40.274;18.268;2023-08-06T05:41:04;100235.50;;;21.01;100.00
33404;BME280;19751;40.274;18.268;2023-08-06T05:43:29;100227.56;;;21.05;100.00
33404;BME280;19751;40.274;18.268;2023-08-06T05:45:55;100231.41;;;21.09;100.00
33404;BME280;19751;40.274;18.268;2023-08-06T05:48:21;100235.78;;;21.10;100.00
33404;BME280;19751;40.274;18.268;2023-08-06T05:50:49;100227.84;;;21.19;100.00
33404;BME280;19751;40.274;18.268;2023-08-06T05:53:14;100241.28;;;21.25;100.00
33404;BME280;19751;40.274;18.268;2023-08-06T05:55:40;100228.41;;;21.26;100.00
33404;BME280;19751;40.274;18.268;2023-08-06T05:58:05;100233.34;;;21.29;100.00
33404;BME280;19751;40.274;18.268;2023-08-06T06:00:31;100231.19;;;21.36;100.00
33404;BME280;19751;40.274;18.268;2023-08-06T06:02:56;100230.09;;;21.37;100.00
33404;BME280;19751;40.274;18.268;2023-08-06T06:05:22;100225.16;;;21.39;100.00
33404;BME280;19751;40.274;18.268;2023-08-06T06:07:47;100231.19;;;21.46;100.00
33404;BME280;19751;40.274;18.268;2023-08-06T06:10:13;100236.41;;;21.43;100.00
33404;BME280;19751;40.274;18.268;2023-08-06T06:12:39;100240.78;;;21.49;100.00
33404;BME280;19751;40.274;18.268;2023-08-06T06:15:05;100240.22;;;21.52;100.00
33404;BME280;19751;40.274;18.268;2023-08-06T06:17:30;100246.56;;;21.57;100.00
33404;BME280;19751;40.274;18.268;2023-08-06T06:19:56;100243.81;;;21.57;100.00
33404;BME280;19751;40.274;18.268;2023-08-06T06:22:21;100241.88;;;21.63;100.00
33404;BME280;19751;40.274;18.268;2023-08-06T06:24:47;100246.00;;;21.71;100.00
33404;BME280;19751;40.274;18.268;2023-08-06T06:27:12;100240.25;;;21.77;100.00
33404;BME280;19751;40.274;18.268;2023-08-06T06:29:38;100236.38;;;21.83;100.00
33404;BME280;19751;40.274;18.268;2023-08-06T06:32:04;100239.38;;;21.92;100.00
33404;BME280;19751;40.274;18.268;2023-08-06T06:34:29;100240.75;;;22.00;100.00
33404;BME280;19751;40.274;18.268;2023-08-06T06:36:55;100239.09;;;21.99;100.00
33404;BME280;19751;40.274;18.268;2023-08-06T06:39:21;100231.41;;;22.01;100.00
33404;BME280;19751;40.274;18.268;2023-08-06T06:41:47;100236.31;;;22.09;100.00
33404;BME280;19751;40.274;18.268;2023-08-06T06:44:13;100238.00;;;22.15;100.00
33404;BME280;19751;40.274;18.268;2023-08-06T06:46:40;100243.72;;;22.24;100.00
33404;BME280;19751;40.274;18.268;2023-08-06T06:49:05;100243.44;;;22.36;100.00
33404;BME280;19751;40.274;18.268;2023-08-06T06:51:31;100250.22;;;22.43;100.00
33404;BME280;19751;40.274;18.268;2023-08-06T06:53:57;100252.97;;;22.48;100.00
33404;BME280;19751;40.274;18.268;2023-08-06T06:56:22;100254.06;;;22.52;100.00
33404;BME280;19751;40.274;18.268;2023-08-06T06:58:48;100251.81;;;22.65;100.00
33404;BME280;19751;40.274;18.268;2023-08-06T07:01:14;100254.78;;;22.73;100.00
33404;BME280;19751;40.274;18.268;2023-08-06T07:03:40;100259.69;;;22.76;100.00
33404;BME280;19751;40.274;18.268;2023-08-06T07:06:06;100251.47;;;22.81;100.00
33404;BME280;19751;40.274;18.268;2023-08-06T07:08:31;100245.38;;;22.84;100.00
33404;BME280;19751;40.274;18.268;2023-08-06T07:11:05;100247.84;;;22.91;100.00
33404;BME280;19751;40.274;18.268;2023-08-06T07:13:31;100259.09;;;22.95;100.00
33404;BME280;19751;40.274;18.268;2023-08-06T07:15:57;100256.28;;;23.05;100.00
33404;BME280;19751;40.274;18.268;2023-08-06T07:18:23;100259.25;;;23.14;100.00
33404;BME280;19751;40.274;18.268;2023-08-06T07:20:52;100265.56;;;23.19;100.00
33404;BME280;19751;40.274;18.268;2023-08-06T07:23:21;100274.81;;;23.28;100.00
33404;BME280;19751;40.274;18.268;2023-08-06T07:25:47;100274.78;;;23.33;100.00
33404;BME280;19751;40.274;18.268;2023-08-06T07:28:13;100282.50;;;23.31;93.93
33404;BME280;19751;40.274;18.268;2023-08-06T07:30:39;100286.34;;;23.30;95.63
33404;BME280;19751;40.274;18.268;2023-08-06T07:33:05;100290.72;;;23.37;96.72
33404;BME280;19751;40.274;18.268;2023-08-06T07:35:31;100293.41;;;23.42;95.47
33404;BME280;19751;40.274;18.268;2023-08-06T07:37:57;100286.81;;;23.43;94.79
33404;BME280;19751;40.274;18.268;2023-08-06T07:40:22;100293.38;;;23.47;94.44
33404;BME280;19751;40.274;18.268;2023-08-06T07:42:48;100290.88;;;23.50;94.49
33404;BME280;19751;40.274;18.268;2023-08-06T07:45:13;100294.09;;;23.63;95.00
33404;BME280;19751;40.274;18.268;2023-08-06T07:47:39;100298.44;;;23.74;95.76
33404;BME280;19751;40.274;18.268;2023-08-06T07:50:05;100294.00;;;23.78;95.28
33404;BME280;19751;40.274;18.268;2023-08-06T07:52:30;100279.94;;;23.79;95.23
33404;BME280;19751;40.274;18.268;2023-08-06T07:54:56;100289.56;;;23.82;96.17
33404;BME280;19751;40.274;18.268;2023-08-06T07:57:21;100294.50;;;23.80;93.20
33404;BME280;19751;40.274;18.268;2023-08-06T07:59:47;100300.88;;;23.80;86.67
33404;BME280;19751;40.274;18.268;2023-08-06T08:02:12;100309.63;;;23.83;87.20
33404;BME280;19751;40.274;18.268;2023-08-06T08:04:38;100315.63;;;23.90;87.39
33404;BME280;19751;40.274;18.268;2023-08-06T08:07:04;100310.38;;;23.93;80.64
33404;BME280;19751;40.274;18.268;2023-08-06T08:09:29;100318.03;;;23.96;81.38
33404;BME280;19751;40.274;18.268;2023-08-06T08:11:55;100322.19;;;23.94;83.12
33404;BME280;19751;40.274;18.268;2023-08-06T08:14:20;100315.28;;;23.96;81.51
33404;BME280;19751;40.274;18.268;2023-08-06T08:16:46;100315.75;;;24.03;81.32
33404;BME280;19751;40.274;18.268;2023-08-06T08:19:11;100309.94;;;24.10;79.10
33404;BME280;19751;40.274;18.268;2023-08-06T08:21:37;100313.13;;;24.22;76.85
33404;BME280;19751;40.274;18.268;2023-08-06T08:24:03;100323.28;;;24.22;74.69
33404;BME280;19751;40.274;18.268;2023-08-06T08:26:29;100316.16;;;24.21;73.74
33404;BME280;19751;40.274;18.268;2023-08-06T08:28:54;100308.69;;;24.26;75.08
33404;BME280;19751;40.274;18.268;2023-08-06T08:31:20;100308.81;;;24.40;76.44
33404;BME280;19751;40.274;18.268;2023-08-06T08:33:45;100313.63;;;24.53;73.93
33404;BME280;19751;40.274;18.268;2023-08-06T08:36:11;100319.84;;;24.64;70.16
33404;BME280;19751;40.274;18.268;2023-08-06T08:38:36;100314.09;;;24.61;70.16
33404;BME280;19751;40.274;18.268;2023-08-06T08:41:02;100322.13;;;24.57;70.66
33404;BME280;19751;40.274;18.268;2023-08-06T08:43:28;100315.75;;;24.62;70.25
33404;BME280;19751;40.274;18.268;2023-08-06T08:45:56;100317.59;;;24.66;68.05
33404;BME280;19751;40.274;18.268;2023-08-06T08:48:24;100323.94;;;24.67;69.48
33404;BME280;19751;40.274;18.268;2023-08-06T08:50:51;100317.84;;;24.70;68.15
33404;BME280;19751;40.274;18.268;2023-08-06T08:53:17;100326.03;;;24.75;67.64
33404;BME280;19751;40.274;18.268;2023-08-06T08:55:46;100317.75;;;24.80;69.16
33404;BME280;19751;40.274;18.268;2023-08-06T08:58:12;100330.81;;;24.88;68.34
33404;BME280;19751;40.274;18.268;2023-08-06T09:00:39;100328.84;;;24.94;64.69
33404;BME280;19751;40.274;18.268;2023-08-06T09:03:07;100324.97;;;24.95;64.79
33404;BME280;19751;40.274;18.268;2023-08-06T09:05:33;100332.00;;;25.06;65.58
33404;BME280;19751;40.274;18.268;2023-08-06T09:08:03;100330.25;;;25.15;66.77
33404;BME280;19751;40.274;18.268;2023-08-06T09:10:29;100341.50;;;25.19;64.36
33404;BME280;19751;40.274;18.268;2023-08-06T09:12:56;100328.53;;;25.19;62.61
33404;BME280;19751;40.274;18.268;2023-08-06T09:15:26;100324.16;;;25.18;64.67
33404;BME280;19751;40.274;18.268;2023-08-06T09:17:53;100328.53;;;25.19;65.17
33404;BME280;19751;40.274;18.268;2023-08-06T09:20:19;100333.75;;;25.21;63.27
33404;BME280;19751;40.274;18.268;2023-08-06T09:22:44;100327.28;;;25.31;60.91
33404;BME280;19751;40.274;18.268;2023-08-06T09:25:11;100333.75;;;25.40;55.86
33404;BME280;19751;40.274;18.268;2023-08-06T09:27:38;100327.94;;;25.41;54.28
33404;BME280;19751;40.274;18.268;2023-08-06T09:30:05;100332.56;;;25.46;56.95
33404;BME280;19751;40.274;18.268;2023-08-06T09:32:48;100335.41;;;25.60;56.27
33404;BME280;19751;40.274;18.268;2023-08-06T09:35:19;100331.72;;;25.64;53.06
33404;BME280;19751;40.274;18.268;2023-08-06T09:37:45;100333.59;;;25.69;53.16
33404;BME280;19751;40.274;18.268;2023-08-06T09:42:48;100326.72;;;25.66;53.28
33404;BME280;19751;40.274;18.268;2023-08-06T09:45:13;100317.84;;;25.69;53.31
33404;BME280;19751;40.274;18.268;2023-08-06T09:47:41;100324.06;;;25.80;51.37
33404;BME280;19751;40.274;18.268;2023-08-06T09:50:15;100326.53;;;25.82;50.13
33404;BME280;19751;40.274;18.268;2023-08-06T09:52:42;100318.25;;;25.82;50.06
33404;BME280;19751;40.274;18.268;2023-08-06T09:55:08;100327.38;;;25.96;47.59
33404;BME280;19751;40.274;18.268;2023-08-06T09:57:36;100326.69;;;26.04;44.41
33404;BME280;19751;40.274;18.268;2023-08-06T10:00:02;100322.84;;;26.19;44.81
33404;BME280;19751;40.274;18.268;2023-08-06T10:02:28;100323.28;;;26.26;44.09
33404;BME280;19751;40.274;18.268;2023-08-06T10:04:55;100326.25;;;26.30;43.71
33404;BME280;19751;40.274;18.268;2023-08-06T10:07:21;100327.00;;;26.49;41.60
33404;BME280;19751;40.274;18.268;2023-08-06T10:09:49;100331.53;;;26.59;40.83
33404;BME280;19751;40.274;18.268;2023-08-06T10:12:15;100324.44;;;26.66;40.23
33404;BME280;19751;40.274;18.268;2023-08-06T10:14:43;100328.53;;;26.69;39.39
33404;BME280;19751;40.274;18.268;2023-08-06T10:17:11;100318.59;;;26.82;40.07
33404;BME280;19751;40.274;18.268;2023-08-06T10:19:37;100324.44;;;26.80;39.88
33404;BME280;19751;40.274;18.268;2023-08-06T10:22:13;100337.84;;;26.87;40.11
33404;BME280;19751;40.274;18.268;2023-08-06T10:24:56;100336.31;;;26.81;39.72
33404;BME280;19751;40.274;18.268;2023-08-06T10:32:47;100323.31;;;26.81;40.05
33404;BME280;19751;40.274;18.268;2023-08-06T10:35:45;100325.25;;;26.81;39.30
33404;BME280;19751;40.274;18.268;2023-08-06T10:38:21;100324.44;;;26.66;39.25
33404;BME280;19751;40.274;18.268;2023-08-06T10:41:02;100309.59;;;26.62;39.61
33404;BME280;19751;40.274;18.268;2023-08-06T10:43:35;100318.84;;;26.71;40.16
33404;BME280;19751;40.274;18.268;2023-08-06T10:46:09;100311.56;;;26.75;40.61
33404;BME280;19751;40.274;18.268;2023-08-06T10:48:41;100313.31;;;26.71;41.11
33404;BME280;19751;40.274;18.268;2023-08-06T10:51:11;100318.84;;;26.71;41.65
33404;BME280;19751;40.274;18.268;2023-08-06T10:53:38;100317.09;;;26.75;41.21
33404;BME280;19751;40.274;18.268;2023-08-06T10:56:14;100315.13;;;26.76;41.58
33404;BME280;19751;40.274;18.268;2023-08-06T10:58:40;100318.00;;;26.85;41.61
33404;BME280;19751;40.274;18.268;2023-08-06T11:01:06;100320.56;;;26.81;41.72
33404;BME280;19751;40.274;18.268;2023-08-06T11:03:33;100321.25;;;26.87;42.68
33404;BME280;19751;40.274;18.268;2023-08-06T11:05:59;100310.72;;;26.89;41.66
33404;BME280;19751;40.274;18.268;2023-08-06T11:08:29;100317.38;;;26.88;42.25
33404;BME280;19751;40.274;18.268;2023-08-06T11:10:55;100302.22;;;26.85;42.27
33404;BME280;19751;40.274;18.268;2023-08-06T11:13:21;100308.66;;;26.94;42.76
33404;BME280;19751;40.274;18.268;2023-08-06T11:15:47;100307.44;;;27.14;42.48
33404;BME280;19751;40.274;18.268;2023-08-06T11:18:13;100301.50;;;27.21;41.17
33404;BME280;19751;40.274;18.268;2023-08-06T11:20:39;100306.19;;;27.20;40.59
33404;BME280;19751;40.274;18.268;2023-08-06T11:23:05;100305.56;;;27.23;40.73
33404;BME280;19751;40.274;18.268;2023-08-06T11:25:34;100310.47;;;27.26;41.33
33404;BME280;19751;40.274;18.268;2023-08-06T11:28:01;100298.16;;;27.33;40.75
33404;BME280;19751;40.274;18.268;2023-08-06T11:30:26;100296.47;;;27.45;41.31
33404;BME280;19751;40.274;18.268;2023-08-06T11:32:52;100295.28;;;27.60;40.65
33404;BME280;19751;40.274;18.268;2023-08-06T11:35:18;100291.97;;;27.72;41.15
33404;BME280;19751;40.274;18.268;2023-08-06T11:37:44;100289.00;;;27.68;41.35
33404;BME280;19751;40.274;18.268;2023-08-06T11:40:11;100278.22;;;27.58;41.65
33404;BME280;19751;40.274;18.268;2023-08-06T11:42:37;100283.75;;;27.58;42.11
33404;BME280;19751;40.274;18.268;2023-08-06T11:45:03;100280.22;;;27.66;42.25
33404;BME280;19751;40.274;18.268;2023-08-06T11:47:30;100278.94;;;27.72;40.30
33404;BME280;19751;40.274;18.268;2023-08-06T11:49:56;100281.47;;;27.60;40.33
33404;BME280;19751;40.274;18.268;2023-08-06T11:55:04;100278.22;;;27.81;41.70
33404;BME280;19751;40.274;18.268;2023-08-06T11:57:36;100271.28;;;27.92;41.13
33404;BME280;19751;40.274;18.268;2023-08-06T12:00:06;100269.63;;;27.91;41.12
33404;BME280;19751;40.274;18.268;2023-08-06T12:02:33;100286.47;;;28.03;41.43
33404;BME280;19751;40.274;18.268;2023-08-06T12:05:11;100284.41;;;28.09;41.17
33404;BME280;19751;40.274;18.268;2023-08-06T12:07:38;100281.53;;;28.22;40.44
33404;BME280;19751;40.274;18.268;2023-08-06T12:10:05;100275.84;;;28.28;39.57
33404;BME280;19751;40.274;18.268;2023-08-06T12:12:31;100274.88;;;28.32;39.98
33404;BME280;19751;40.274;18.268;2023-08-06T12:14:57;100272.59;;;28.25;39.57
33404;BME280;19751;40.274;18.268;2023-08-06T12:17:25;100272.25;;;28.27;39.64
33404;BME280;19751;40.274;18.268;2023-08-06T12:19:51;100271.50;;;28.35;39.54
33404;BME280;19751;40.274;18.268;2023-08-06T12:22:16;100266.50;;;28.37;39.28
33404;BME280;19751;40.274;18.268;2023-08-06T12:24:43;100263.81;;;28.32;39.04
33404;BME280;19751;40.274;18.268;2023-08-06T12:27:09;100263.56;;;28.42;39.59
33404;BME280;19751;40.274;18.268;2023-08-06T12:29:35;100259.88;;;28.64;39.02
33404;BME280;19751;40.274;18.268;2023-08-06T12:32:01;100257.94;;;28.73;38.48
33404;BME280;19751;40.274;18.268;2023-08-06T12:34:27;100267.56;;;28.76;38.67
33404;BME280;19751;40.274;18.268;2023-08-06T12:36:52;100257.13;;;28.73;38.77
33404;BME280;19751;40.274;18.268;2023-08-06T12:39:18;100259.72;;;28.78;39.12
33404;BME280;19751;40.274;18.268;2023-08-06T12:41:43;100256.03;;;28.83;38.76
33404;BME280;19751;40.274;18.268;2023-08-06T12:44:11;100258.78;;;28.83;38.59